Carson, California
Current Conditions -  °F | °C
As of 8:53 AM on Thursday 18 Dec 2014 (Local Time) from KLGB Reporting Station
Overcast Overcast  
Wind Chill: 56°   Ceiling: 8500
Heat Index: 56°   Visibility: 10mi
Dew Point: 48°   Wind: 0mph
Humidity: 75%   Direction: NA
Pressure: 30.19"   Gusts: NA
Location:  33.83°N, 118.26°W
Report Text: KLGB 181653Z 00000KT 10SM BKN085 OVC100 13/09 A3019 RMK AO2 SLP223 T01330089
Loading
Personal Weather Stations






























Interactive Weather Map New forecast layout! Learn more

10-Day Weather Forecast

Advertisements
Track Severe Weather on mobile